createdAt,value
2018-07-09T00:01:02.476Z,21.27
2018-07-09T00:02:12.293Z,21.31
2018-07-09T00:03:22.377Z,21.25
2018-07-09T00:04:32.191Z,21.21
2018-07-09T00:05:42.009Z,21.27
2018-07-09T00:06:52.079Z,21.27
2018-07-09T00:08:02.147Z,21.28
2018-07-09T00:09:11.945Z,21.19
2018-07-09T00:10:22.033Z,21.27
2018-07-09T00:11:32.110Z,21.27
2018-07-09T00:12:41.939Z,21.25
2018-07-09T00:13:52.010Z,21.27
2018-07-09T00:15:02.063Z,21.19
2018-07-09T00:16:11.884Z,21.21
2018-07-09T00:17:21.960Z,21.23
2018-07-09T00:18:32.063Z,21.21
2018-07-09T00:19:42.148Z,21.18
2018-07-09T00:20:51.960Z,21.18
2018-07-09T00:22:01.779Z,21.19
2018-07-09T00:23:11.591Z,21.28
2018-07-09T00:24:21.743Z,21.25
2018-07-09T00:32:19.830Z,21.12
2018-07-09T00:33:30.040Z,21.08
2018-07-09T00:34:39.595Z,21.11
2018-07-09T00:35:49.667Z,21.08
2018-07-09T00:36:59.765Z,21.11
2018-07-09T00:38:09.835Z,21.11
2018-07-09T00:39:19.897Z,21.16
2018-07-09T00:40:29.981Z,21.21
2018-07-09T00:41:40.061Z,21.21
2018-07-09T00:42:50.156Z,21.19
2018-07-09T00:44:00.296Z,21.21
2018-07-09T00:45:10.125Z,21.12
2018-07-09T00:46:20.202Z,21.09
2018-07-09T00:47:30.272Z,21.06
2018-07-09T00:48:40.423Z,21.08
2018-07-09T00:49:50.297Z,20.98
2018-07-09T00:51:00.600Z,21.01
2018-07-09T00:52:10.997Z,21
2018-07-09T00:53:20.814Z,21.04
2018-07-09T00:54:30.369Z,21.11
2018-07-09T00:55:40.492Z,21.11
2018-07-09T00:56:50.329Z,21.15
2018-07-09T00:58:00.406Z,21.08
2018-07-09T00:59:10.484Z,21.04
2018-07-09T01:00:20.564Z,21.09
2018-07-09T01:01:30.426Z,21.06
2018-07-09T01:02:40.238Z,21.04
2018-07-09T01:03:50.299Z,20.98
2018-07-09T01:05:00.122Z,20.93
2018-07-09T01:06:10.201Z,20.9
2018-07-09T01:07:20.263Z,20.91
2018-07-09T01:08:30.358Z,20.98
2018-07-09T01:09:40.421Z,21.04
2018-07-09T01:10:50.503Z,20.94
2018-07-09T01:12:00.573Z,21.01
2018-07-09T01:13:10.387Z,20.96
2018-07-09T01:14:20.468Z,20.97
2018-07-09T01:15:30.551Z,21
2018-07-09T01:16:40.638Z,21
2018-07-09T01:17:50.716Z,20.94
2018-07-09T01:19:00.845Z,20.9
2018-07-09T01:20:10.930Z,20.96
2018-07-09T01:21:20.827Z,20.9
2018-07-09T01:22:30.906Z,20.96
2018-07-09T01:23:40.729Z,20.94
2018-07-09T01:24:50.800Z,20.96
2018-07-09T01:26:00.879Z,20.85
2018-07-09T01:27:10.953Z,20.94
2018-07-09T01:28:21.032Z,20.94
2018-07-09T01:29:31.092Z,20.86
2018-07-09T01:30:41.191Z,20.83
2018-07-09T01:31:51.260Z,20.88
2018-07-09T01:33:01.341Z,20.85
2018-07-09T01:34:11.433Z,20.85
2018-07-09T01:35:21.499Z,20.96
2018-07-09T01:36:31.578Z,20.96
2018-07-09T01:37:41.639Z,20.86
2018-07-09T01:38:51.735Z,20.91
2018-07-09T01:40:01.809Z,20.85
2018-07-09T01:41:11.896Z,20.96
2018-07-09T01:42:21.970Z,20.85
2018-07-09T01:43:32.038Z,20.9
2018-07-09T01:44:41.851Z,20.93
2018-07-09T01:45:51.660Z,20.86
2018-07-09T01:47:01.494Z,20.86
2018-07-09T01:48:11.046Z,20.88
2018-07-09T01:49:21.135Z,20.94
2018-07-09T01:50:31.218Z,20.91
2018-07-09T01:51:41.278Z,20.96
2018-07-09T01:52:51.099Z,20.9
2018-07-09T01:54:01.168Z,20.86
2018-07-09T01:55:11.221Z,20.85
2018-07-09T01:56:21.313Z,20.96
2018-07-09T01:57:31.386Z,20.94
2018-07-09T01:58:41.465Z,20.86
2018-07-09T01:59:51.272Z,20.81
2018-07-09T02:01:01.342Z,20.86
2018-07-09T02:02:11.415Z,20.86
2018-07-09T02:03:21.483Z,20.79
2018-07-09T02:04:31.559Z,20.86
2018-07-09T02:05:41.380Z,20.82
2018-07-09T02:06:50.943Z,20.93
2018-07-09T02:08:01.009Z,20.88
2018-07-09T02:09:11.101Z,20.83
2018-07-09T02:10:21.167Z,20.79
2018-07-09T02:11:31.280Z,20.82
2018-07-09T02:12:41.090Z,20.82
2018-07-09T02:13:51.168Z,20.82
2018-07-09T02:15:01.310Z,20.78
2018-07-09T02:16:11.384Z,20.81
2018-07-09T02:17:21.215Z,20.86
2018-07-09T02:18:30.814Z,20.79
2018-07-09T02:19:40.629Z,20.85
2018-07-09T02:20:50.434Z,20.91
2018-07-09T02:22:00.530Z,20.85
2018-07-09T02:23:10.653Z,20.86
2018-07-09T02:24:20.740Z,20.86
2018-07-09T02:25:30.548Z,20.81
2018-07-09T02:26:40.359Z,20.85
2018-07-09T02:27:50.433Z,20.85
2018-07-09T02:29:00.255Z,20.85
2018-07-09T02:30:10.337Z,20.88
2018-07-09T02:31:20.174Z,20.94
2018-07-09T02:32:30.277Z,20.93
2018-07-09T02:33:40.338Z,20.98
2018-07-09T02:34:50.420Z,20.96
2018-07-09T02:36:00.545Z,20.93
2018-07-09T02:37:10.613Z,20.91
2018-07-09T02:38:20.698Z,20.97
2018-07-09T02:39:30.262Z,20.94
2018-07-09T02:40:40.368Z,20.96
2018-07-09T02:41:50.450Z,20.88
2018-07-09T02:43:00.533Z,20.98
2018-07-09T02:44:10.613Z,20.94
2018-07-09T02:45:20.415Z,20.94
2018-07-09T02:46:30.504Z,20.94
2018-07-09T02:47:40.574Z,20.93
2018-07-09T02:48:49.860Z,20.94
2018-07-09T02:49:59.699Z,20.96
2018-07-09T02:51:09.516Z,20.97
2018-07-09T02:52:19.656Z,20.93
2018-07-09T02:53:29.740Z,20.94
2018-07-09T02:54:39.560Z,20.94
2018-07-09T02:55:49.661Z,21.03
2018-07-09T02:56:59.748Z,21.01
2018-07-09T02:58:09.830Z,20.98
2018-07-09T02:59:19.910Z,21.11
2018-07-09T03:00:29.996Z,21.04
2018-07-09T03:01:39.815Z,21.04
2018-07-09T03:02:49.668Z,21.04
2018-07-09T03:35:35.510Z,19.87
2018-07-09T03:36:45.584Z,19.86
2018-07-09T03:37:55.386Z,19.83
2018-07-09T03:39:05.181Z,20
2018-07-09T03:40:15.240Z,20.02
2018-07-09T03:41:25.050Z,20.08
2018-07-09T03:42:35.119Z,20.18
2018-07-09T03:43:45.185Z,20.26
2018-07-09T03:44:54.978Z,20.38
2018-07-09T03:46:04.785Z,20.41
2018-07-09T03:47:14.899Z,20.64
2018-07-09T03:48:24.953Z,20.72
2018-07-09T03:49:35.025Z,20.83
2018-07-09T03:50:44.885Z,20.96
2018-07-09T03:51:54.947Z,21.18
2018-07-09T03:53:04.754Z,21.33
2018-07-09T03:54:14.615Z,21.46
2018-07-09T03:55:24.676Z,21.55
2018-07-09T03:56:34.237Z,21.59
2018-07-09T03:57:43.799Z,21.78
2018-07-09T03:58:53.922Z,21.86
2018-07-09T04:00:03.736Z,21.99
2018-07-09T04:01:13.808Z,22.18
2018-07-09T04:02:24.209Z,22.23
2018-07-09T04:03:34.280Z,22.34
2018-07-09T04:04:44.102Z,22.44
2018-07-09T04:05:53.915Z,22.52
2018-07-09T04:07:04.032Z,22.7
2018-07-09T04:08:14.081Z,22.76
2018-07-09T04:09:23.889Z,22.88
2018-07-09T04:10:34.381Z,22.92
2018-07-09T04:11:44.433Z,23.01
2018-07-09T04:12:54.549Z,23.15
2018-07-09T04:14:04.355Z,23.16
2018-07-09T04:15:13.916Z,23.28
2018-07-09T04:16:23.994Z,23.34
2018-07-09T04:17:34.074Z,23.53
2018-07-09T04:18:44.139Z,23.56
2018-07-09T04:19:53.965Z,23.66
2018-07-09T04:21:04.033Z,23.74
2018-07-09T04:22:14.113Z,23.87
2018-07-09T04:23:24.179Z,24.03
2018-07-09T04:24:34.251Z,24.11
2018-07-09T04:25:44.338Z,25.09
2018-07-09T04:26:54.415Z,26.59
2018-07-09T04:28:04.475Z,27.87
2018-07-09T04:29:14.282Z,28.9
2018-07-09T04:30:24.372Z,29.67
2018-07-09T04:31:34.437Z,30.35
2018-07-09T04:32:44.552Z,31.08
2018-07-09T04:33:54.624Z,31.59
2018-07-09T04:35:04.713Z,32.05
2018-07-09T04:36:14.517Z,32.5
2018-07-09T04:37:24.063Z,32.93
2018-07-09T04:38:34.138Z,33.39
2018-07-09T04:39:44.217Z,33.75
2018-07-09T04:40:54.290Z,34.11
2018-07-09T04:42:04.117Z,34.43
2018-07-09T04:43:14.330Z,34.66
2018-07-09T04:44:24.218Z,34.93
2018-07-09T04:45:34.027Z,35.24
2018-07-09T04:46:44.099Z,35.39
2018-07-09T04:47:54.183Z,35.47
2018-07-09T04:49:04.011Z,35.76
2018-07-09T04:50:14.093Z,35.94
2018-07-09T04:51:24.178Z,36.15
2018-07-09T04:52:34.308Z,36.19
2018-07-09T04:53:44.408Z,36.19
2018-07-09T04:54:54.497Z,36.3
2018-07-09T04:56:04.590Z,36.24
2018-07-09T04:57:14.144Z,36.43
2018-07-09T04:58:23.954Z,36.44
2018-07-09T04:59:34.034Z,36.63
2018-07-09T05:00:44.103Z,36.62
2018-07-09T05:01:54.178Z,36.75
2018-07-09T05:03:04.257Z,36.8
2018-07-09T05:04:14.336Z,36.65
2018-07-09T05:05:24.136Z,36.65
2018-07-09T05:06:33.950Z,36.67
2018-07-09T05:07:44.040Z,36.58
2018-07-09T05:08:53.863Z,36.56
2018-07-09T05:10:03.948Z,36.55
2018-07-09T05:11:14.020Z,36.53
2018-07-09T05:12:23.863Z,36.43
2018-07-09T05:13:33.930Z,36.43
2018-07-09T05:14:44.020Z,36.4
2018-07-09T05:15:54.115Z,36.39
2018-07-09T05:17:04.210Z,36.33
2018-07-09T05:18:14.287Z,36.37
2018-07-09T05:19:24.404Z,36.37
2018-07-09T05:20:34.540Z,36.3
2018-07-09T05:21:44.785Z,36.41
2018-07-09T05:22:54.602Z,36.43
2018-07-09T05:24:04.694Z,36.32
2018-07-09T05:25:14.512Z,36.36
2018-07-09T05:26:24.596Z,36.37
2018-07-09T05:27:34.694Z,36.36
2018-07-09T05:28:44.532Z,36.41
2018-07-09T05:29:54.342Z,36.28
2018-07-09T05:31:04.431Z,36.32
2018-07-09T05:32:14.560Z,36.19
2018-07-09T05:33:24.275Z,36.26
2018-07-09T05:34:34.356Z,36.22
2018-07-09T05:35:44.439Z,36.24
2018-07-09T05:36:54.531Z,36.17
2018-07-09T05:38:04.089Z,36.18
2018-07-09T05:39:14.155Z,36.21
2018-07-09T05:40:24.238Z,36.14
2018-07-09T05:41:34.294Z,36.12
2018-07-09T05:42:44.127Z,35.94
2018-07-09T05:43:53.961Z,35.83
2018-07-09T05:45:04.051Z,35.87
2018-07-09T05:46:14.189Z,35.86
2018-07-09T05:47:24.010Z,35.82
2018-07-09T05:48:34.084Z,35.94
2018-07-09T05:49:44.173Z,35.95
2018-07-09T05:50:53.984Z,35.89
2018-07-09T05:52:03.809Z,35.8
2018-07-09T05:53:13.928Z,35.77
2018-07-09T05:54:23.803Z,35.69
2018-07-09T05:55:33.638Z,35.53
2018-07-09T05:56:43.716Z,35.57
2018-07-09T05:57:53.798Z,35.57
2018-07-09T05:59:04.180Z,35.43
2018-07-09T06:00:14.263Z,35.38
2018-07-09T06:01:24.350Z,35.34
2018-07-09T06:02:34.451Z,35.26
2018-07-09T06:03:44.543Z,34.93
2018-07-09T06:04:54.423Z,34.84
2018-07-09T06:06:04.515Z,34.58
2018-07-09T06:07:14.638Z,34.39
2018-07-09T06:08:24.470Z,34.33
2018-07-09T06:09:34.563Z,34.19
2018-07-09T06:10:44.656Z,34.19
2018-07-09T06:11:54.754Z,34.1
2018-07-09T06:13:04.585Z,33.99
2018-07-09T06:14:14.653Z,33.95
2018-07-09T06:15:24.463Z,33.71
2018-07-09T06:16:34.283Z,33.74
2018-07-09T06:17:44.097Z,33.68
2018-07-09T06:18:53.932Z,33.62
2018-07-09T06:20:03.758Z,33.48
2018-07-09T06:21:13.854Z,33.41
2018-07-09T06:22:23.730Z,33.32
2018-07-09T06:23:33.838Z,33.24
2018-07-09T06:24:43.657Z,33.2
2018-07-09T06:25:53.728Z,33.16
2018-07-09T06:27:03.566Z,33.16
2018-07-09T06:28:13.398Z,32.94
2018-07-09T06:29:23.479Z,32.79
2018-07-09T06:30:33.318Z,32.72
2018-07-09T06:31:43.430Z,32.49
2018-07-09T06:32:53.525Z,32.43
2018-07-09T06:34:03.614Z,32.34
2018-07-09T06:35:13.436Z,32.23
2018-07-09T06:36:23.531Z,32.16
2018-07-09T06:37:33.082Z,32.13
2018-07-09T06:38:43.163Z,32.06
2018-07-09T06:39:53.252Z,32.06
2018-07-09T06:41:03.329Z,32.05
2018-07-09T06:42:13.411Z,31.98
2018-07-09T06:43:23.496Z,31.91
2018-07-09T06:44:33.309Z,31.74
2018-07-09T06:45:43.579Z,31.72
2018-07-09T06:46:53.412Z,31.6
2018-07-09T06:48:03.253Z,31.52
2018-07-09T06:49:13.379Z,31.45
2018-07-09T06:50:23.222Z,31.41
2018-07-09T06:51:33.295Z,31.44
2018-07-09T06:52:43.114Z,31.3
2018-07-09T06:53:52.930Z,31.12
2018-07-09T06:55:02.738Z,31
2018-07-09T06:56:12.811Z,30.88
2018-07-09T06:57:22.902Z,30.86
2018-07-09T06:58:33.143Z,30.75
2018-07-09T06:59:43.227Z,30.56
2018-07-09T07:00:53.053Z,30.51
2018-07-09T07:02:02.874Z,30.28
2018-07-09T07:03:13.032Z,30.19
2018-07-09T07:04:22.857Z,30.13
2018-07-09T07:05:32.981Z,30.1
2018-07-09T07:06:43.143Z,30.04
2018-07-09T07:07:53.232Z,30
2018-07-09T07:09:03.850Z,29.92
2018-07-09T07:10:14.335Z,29.79
2018-07-09T07:11:24.439Z,29.77
2018-07-09T07:12:34.246Z,29.76
2018-07-09T07:13:44.063Z,29.69
2018-07-09T07:14:53.884Z,29.67
2018-07-09T07:16:03.963Z,29.42
2018-07-09T07:17:14.039Z,29.52
2018-07-09T07:18:23.857Z,29.24
2018-07-09T07:19:33.422Z,29.36
2018-07-09T07:20:43.513Z,29.28
2018-07-09T07:21:53.604Z,29.23
2018-07-09T07:23:03.688Z,29.23
2018-07-09T07:24:13.260Z,29.17
2018-07-09T07:25:23.095Z,29.23
2018-07-09T07:26:33.364Z,29.21
2018-07-09T07:27:43.749Z,29.15
2018-07-09T07:28:53.894Z,29.11
2018-07-09T07:30:03.967Z,29.01
2018-07-09T07:31:14.068Z,29.05
2018-07-09T07:32:24.159Z,29.01
2018-07-09T07:33:34.242Z,29.01
2018-07-09T07:34:44.364Z,28.98
2018-07-09T07:35:54.452Z,29.06
2018-07-09T07:37:04.543Z,29.1
2018-07-09T07:38:14.632Z,29.11
2018-07-09T07:39:24.862Z,29.11
2018-07-09T07:40:35.241Z,29.14
2018-07-09T07:41:45.316Z,29.11
2018-07-09T07:42:55.141Z,29.26
2018-07-09T07:44:05.237Z,29.13
2018-07-09T07:45:15.312Z,29.1
2018-07-09T07:46:25.399Z,29.26
2018-07-09T07:47:35.466Z,29.13
2018-07-09T07:48:45.536Z,29.1
2018-07-09T07:49:55.615Z,29.26
2018-07-09T07:51:05.702Z,29.29
2018-07-09T07:52:15.816Z,29.3
2018-07-09T07:53:25.925Z,29.36
2018-07-09T07:54:36.011Z,29.32
2018-07-09T07:55:46.171Z,29.29
2018-07-09T07:56:56.076Z,29.33
2018-07-09T07:58:06.168Z,29.29
2018-07-09T07:59:16.262Z,29.51
2018-07-09T08:00:25.575Z,29.42
2018-07-09T08:01:35.723Z,29.48
2018-07-09T08:02:45.814Z,29.51
2018-07-09T08:03:56.043Z,29.45
2018-07-09T08:05:05.594Z,29.55
2018-07-09T08:06:15.701Z,29.65
2018-07-09T08:07:25.805Z,29.72
2018-07-09T08:08:35.919Z,29.72
2018-07-09T08:09:46.078Z,29.75
2018-07-09T08:10:55.974Z,29.88
2018-07-09T08:13:27.167Z,29.91
2018-07-09T08:14:37.585Z,29.97
2018-07-09T08:15:47.707Z,29.95
2018-07-09T08:16:57.791Z,29.89
2018-07-09T08:18:07.902Z,29.91
2018-07-09T08:19:18.005Z,29.91
2018-07-09T08:20:28.083Z,29.95
2018-07-09T08:21:38.172Z,30.07
2018-07-09T08:22:48.013Z,30
2018-07-09T08:23:58.097Z,30.13
2018-07-09T08:25:08.843Z,30.11
2018-07-09T08:26:18.937Z,30.03
2018-07-09T08:27:29.008Z,30.09
2018-07-09T08:28:39.186Z,30.16
2018-07-09T08:29:49.288Z,30.31
2018-07-09T08:30:59.399Z,30.34
2018-07-09T08:32:09.621Z,30.35
2018-07-09T08:33:19.752Z,30.45
2018-07-09T08:34:29.907Z,30.48
2018-07-09T08:35:39.997Z,30.56
2018-07-09T08:36:50.089Z,30.59
2018-07-09T08:38:00.221Z,30.7
2018-07-09T08:39:10.574Z,30.73
2018-07-09T08:40:20.699Z,30.75
2018-07-09T08:41:30.801Z,30.73
2018-07-09T08:42:40.653Z,30.73
2018-07-09T08:43:50.709Z,30.73
2018-07-09T08:45:00.722Z,30.81
2018-07-09T08:46:10.744Z,30.82
2018-07-09T08:47:20.913Z,30.88
2018-07-09T08:48:31.051Z,30.93
2018-07-09T08:49:41.066Z,30.84
2018-07-09T08:50:51.078Z,30.79
2018-07-09T08:52:00.837Z,30.91
2018-07-09T08:53:10.908Z,30.91
2018-07-09T08:54:20.935Z,30.94
2018-07-09T08:55:30.434Z,31.01
2018-07-09T08:56:40.460Z,31.06
2018-07-09T08:57:50.544Z,31.19
2018-07-09T08:59:00.312Z,31.15
2018-07-09T09:00:10.438Z,31.26
2018-07-09T09:01:20.221Z,31.36
2018-07-09T09:02:29.990Z,31.4
2018-07-09T09:03:40.045Z,31.49
2018-07-09T09:04:50.200Z,31.43
2018-07-09T09:05:59.976Z,31.44
2018-07-09T09:07:09.744Z,31.5
2018-07-09T09:08:19.771Z,31.52
2018-07-09T09:09:29.543Z,31.67
2018-07-09T09:10:39.328Z,31.82
2018-07-09T09:11:49.355Z,31.93
2018-07-09T09:12:59.392Z,31.91
2018-07-09T09:14:09.425Z,32.01
2018-07-09T09:15:19.186Z,32.05
2018-07-09T09:16:29.319Z,32.12
2018-07-09T09:17:39.539Z,32.15
2018-07-09T09:18:49.556Z,32.23
2018-07-09T09:19:59.590Z,32.43
2018-07-09T09:21:09.668Z,32.45
2018-07-09T09:22:19.698Z,32.49
2018-07-09T09:23:29.716Z,32.67
2018-07-09T09:24:39.734Z,32.75
2018-07-09T09:25:49.756Z,32.68
2018-07-09T09:26:59.784Z,32.57
2018-07-09T09:28:09.544Z,32.5
2018-07-09T09:29:19.577Z,32.52
2018-07-09T09:30:29.351Z,32.54
2018-07-09T09:31:39.271Z,32.52
2018-07-09T09:32:49.354Z,32.52
2018-07-09T09:33:59.385Z,32.68
2018-07-09T09:35:09.417Z,32.79
2018-07-09T09:36:19.466Z,32.91
2018-07-09T09:37:29.410Z,32.99
2018-07-09T09:38:39.670Z,33.21
2018-07-09T09:39:49.425Z,33.28
2018-07-09T09:40:59.471Z,33.55
2018-07-09T09:42:09.255Z,33.74
2018-07-09T09:43:19.472Z,33.68
2018-07-09T09:44:28.980Z,33.53
2018-07-09T09:45:39.037Z,33.44
2018-07-09T09:46:48.307Z,33.39
2018-07-09T09:47:58.360Z,33.21
2018-07-09T09:49:08.120Z,33.18
2018-07-09T09:50:18.154Z,33.48
2018-07-09T09:51:28.168Z,33.47
2018-07-09T09:52:38.182Z,33.41
2018-07-09T09:53:47.942Z,33.36
2018-07-09T09:54:57.790Z,33.55
2018-07-09T09:56:08.015Z,33.63
2018-07-09T09:57:18.059Z,33.48
2018-07-09T09:58:27.842Z,33.06
2018-07-09T09:59:37.857Z,33.11
2018-07-09T10:00:48.043Z,33.17
2018-07-09T10:01:58.105Z,33.46
2018-07-09T10:03:08.109Z,33.71
2018-07-09T10:04:17.874Z,34.05
2018-07-09T10:05:27.888Z,34.19
2018-07-09T10:06:38.025Z,34.49
2018-07-09T10:07:48.051Z,34.86
2018-07-09T10:08:58.078Z,34.93
2018-07-09T10:10:07.845Z,34.94
2018-07-09T10:11:17.623Z,34.72
2018-07-09T10:12:27.661Z,34.54
2018-07-09T10:13:37.736Z,34.29
2018-07-09T10:14:47.750Z,34.66
2018-07-09T10:15:57.773Z,34.9
2018-07-09T10:17:07.798Z,34.83
2018-07-09T10:18:17.809Z,34.84
2018-07-09T10:19:27.896Z,34.71
2018-07-09T10:20:37.413Z,34.32
2018-07-09T10:21:47.443Z,34.08
2018-07-09T10:22:57.667Z,33.74
2018-07-09T10:24:08.182Z,33.85
2018-07-09T10:25:18.224Z,34.12
2018-07-09T10:26:27.975Z,34.3
2018-07-09T10:27:37.722Z,34.48
2018-07-09T10:28:47.746Z,34.59
2018-07-09T10:29:57.782Z,34.72
2018-07-09T10:31:07.804Z,34.49
2018-07-09T10:32:17.562Z,34.75
2018-07-09T10:33:27.588Z,34.89
2018-07-09T10:34:37.365Z,34.96
2018-07-09T10:35:47.394Z,35.09
2018-07-09T10:36:57.412Z,35.09
2018-07-09T10:38:07.443Z,35.09
2018-07-09T10:39:17.450Z,35.12
2018-07-09T10:40:27.478Z,35.06
2018-07-09T10:41:37.260Z,35.04
2018-07-09T10:42:47.273Z,35.05
2018-07-09T10:43:57.049Z,35.09
2018-07-09T10:45:07.090Z,35.24
2018-07-09T10:46:17.196Z,35.24
2018-07-09T10:47:26.944Z,35.3
2018-07-09T10:48:36.955Z,35.38
2018-07-09T10:49:46.744Z,35.34
2018-07-09T10:50:56.766Z,35.49
2018-07-09T10:52:06.535Z,35.34
2018-07-09T10:53:16.559Z,35.38
2018-07-09T10:54:26.579Z,35.24
2018-07-09T10:55:36.600Z,34.74
2018-07-09T10:56:46.641Z,34.66
2018-07-09T10:57:56.670Z,34.59
2018-07-09T10:59:06.444Z,34.41
2018-07-09T11:00:16.487Z,34.39
2018-07-09T11:01:26.002Z,34.4
2018-07-09T11:02:35.755Z,34.93
2018-07-09T11:03:45.852Z,35.31
2018-07-09T11:04:55.873Z,35.33
2018-07-09T11:06:05.919Z,35.45
2018-07-09T11:07:15.933Z,35.62
2018-07-09T11:08:25.969Z,35.4
2018-07-09T11:09:35.782Z,35.45
2018-07-09T11:10:45.976Z,35.31
2018-07-09T11:11:56.013Z,35.18
2018-07-09T11:13:05.777Z,35.57
2018-07-09T11:14:15.802Z,35.83
2018-07-09T11:15:25.551Z,36.01
2018-07-09T11:16:35.596Z,36.18
2018-07-09T11:17:45.633Z,36.19
2018-07-09T11:18:55.650Z,36.17
2018-07-09T11:20:05.684Z,35.62
2018-07-09T11:21:15.703Z,35.24
2018-07-09T11:22:25.472Z,34.81
2018-07-09T11:23:35.501Z,34.41
2018-07-09T11:24:45.557Z,34.1
2018-07-09T11:25:55.344Z,33.73
2018-07-09T11:27:05.382Z,33.47
2018-07-09T11:28:15.411Z,33.18
2018-07-09T11:29:25.745Z,33.05
2018-07-09T11:30:35.797Z,32.9
2018-07-09T11:31:45.066Z,32.79
2018-07-09T11:32:55.105Z,32.67
2018-07-09T11:34:05.129Z,32.5
2018-07-09T11:35:15.184Z,32.42
2018-07-09T11:36:25.289Z,32.45
2018-07-09T11:37:35.633Z,32.3
2018-07-09T11:38:45.243Z,32.09
2018-07-09T11:39:55.017Z,32.05
2018-07-09T11:41:04.775Z,31.86
2018-07-09T11:42:14.952Z,31.8
2018-07-09T11:43:25.173Z,31.62
2018-07-09T11:44:34.931Z,31.5
2018-07-09T11:45:45.060Z,31.56
2018-07-09T11:46:55.087Z,31.65
2018-07-09T11:48:05.137Z,31.65
2018-07-09T11:49:14.922Z,31.62
2018-07-09T11:50:24.993Z,32.08
2018-07-09T11:51:35.018Z,32.15
2018-07-09T11:52:45.046Z,32.62
2018-07-09T11:53:54.564Z,32.86
2018-07-09T11:55:04.049Z,32.93
2018-07-09T11:56:13.881Z,32.8
2018-07-09T11:57:23.650Z,32.76
2018-07-09T11:58:33.436Z,33.13
2018-07-09T11:59:43.587Z,33.61
2018-07-09T12:00:53.608Z,33.87
2018-07-09T12:02:03.915Z,34.18
2018-07-09T12:03:13.678Z,34.43
2018-07-09T12:04:23.439Z,34.64
2018-07-09T12:05:33.190Z,34.93
2018-07-09T12:06:43.236Z,35.09
2018-07-09T12:07:53.282Z,35.02
2018-07-09T12:09:03.039Z,34.72
2018-07-09T12:10:12.807Z,35.11
2018-07-09T12:11:22.708Z,35.05
2018-07-09T12:12:32.847Z,35.34
2018-07-09T12:13:42.630Z,35.57
2018-07-09T12:14:52.652Z,35.9
2018-07-09T12:16:02.682Z,36.09
2018-07-09T12:17:12.703Z,36.24
2018-07-09T12:18:22.707Z,35.77
2018-07-09T12:19:32.734Z,35.49
2018-07-09T12:20:42.502Z,35.49
2018-07-09T12:21:52.013Z,35.3
2018-07-09T12:23:01.782Z,35.26
2018-07-09T12:24:11.817Z,35.15
2018-07-09T12:25:21.829Z,34.52
2018-07-09T12:26:31.846Z,34.06
2018-07-09T12:27:41.861Z,33.53
2018-07-09T12:28:51.762Z,33.17
2018-07-09T12:30:01.968Z,32.74
2018-07-09T12:31:11.739Z,32.5
2018-07-09T12:32:21.496Z,32.62
2018-07-09T12:33:31.507Z,32.76
2018-07-09T12:34:41.534Z,32.68
2018-07-09T12:35:51.284Z,32.76
2018-07-09T12:37:01.360Z,32.96
2018-07-09T12:38:11.141Z,33.17
2018-07-09T12:39:21.156Z,33.16
2018-07-09T12:40:31.174Z,33.29
2018-07-09T12:41:41.265Z,33.32
2018-07-09T12:42:51.279Z,33.29
2018-07-09T12:44:01.293Z,33.31
2018-07-09T12:45:11.323Z,33.4
2018-07-09T12:46:21.080Z,33.4
2018-07-09T12:47:31.102Z,33.41
2018-07-09T12:48:40.862Z,33.37
2018-07-09T12:49:50.887Z,33.36
2018-07-09T12:51:01.001Z,33.46
2018-07-09T12:52:11.058Z,33.52
2018-07-09T12:53:20.801Z,33.59
2018-07-09T12:54:30.578Z,33.55
2018-07-09T12:55:40.765Z,33.53
2018-07-09T12:56:50.721Z,33.53
2018-07-09T12:58:00.488Z,33.61
2018-07-09T12:59:10.268Z,33.61
2018-07-09T13:00:20.308Z,33.63
2018-07-09T13:01:30.434Z,33.73
2018-07-09T13:02:40.934Z,33.73
2018-07-09T13:03:50.957Z,33.68
2018-07-09T13:05:00.992Z,33.78
2018-07-09T13:06:10.761Z,33.74
2018-07-09T13:07:20.775Z,33.73
2018-07-09T13:08:30.792Z,33.74
2018-07-09T13:09:40.805Z,33.71
2018-07-09T13:10:50.058Z,33.75
2018-07-09T13:12:00.080Z,33.71
2018-07-09T13:13:09.839Z,33.74
2018-07-09T13:14:19.859Z,33.92
2018-07-09T13:15:29.989Z,33.78
2018-07-09T13:16:40.011Z,33.84
2018-07-09T13:17:49.832Z,33.9
2018-07-09T13:18:59.855Z,33.83
2018-07-09T13:20:09.916Z,33.89
2018-07-09T13:21:19.678Z,33.8
2018-07-09T13:22:29.688Z,33.84
2018-07-09T13:23:39.706Z,33.92
2018-07-09T13:24:49.738Z,33.99
2018-07-09T13:25:59.783Z,33.85
2018-07-09T13:27:09.844Z,34.02
2018-07-09T13:28:19.860Z,34.03
2018-07-09T13:29:29.893Z,34.02
2018-07-09T13:30:39.649Z,34.1
2018-07-09T13:31:49.676Z,34.08
2018-07-09T13:32:59.773Z,34.15
2018-07-09T13:34:09.816Z,34.15
2018-07-09T13:35:19.848Z,34.22
2018-07-09T13:36:29.877Z,34.36
2018-07-09T13:37:39.893Z,34.34
2018-07-09T13:38:49.925Z,34.46
2018-07-09T13:39:59.937Z,34.45
2018-07-09T13:41:09.965Z,34.55
2018-07-09T13:42:19.989Z,34.55
2018-07-09T13:43:29.737Z,34.51
2018-07-09T13:44:39.770Z,34.56
2018-07-09T13:45:49.798Z,34.66
2018-07-09T13:46:59.556Z,34.66
2018-07-09T13:48:09.327Z,34.61
2018-07-09T13:49:19.150Z,34.86
2018-07-09T13:50:29.192Z,34.96
2018-07-09T13:51:39.238Z,35.04
2018-07-09T13:52:48.990Z,35.11
2018-07-09T13:53:58.740Z,35.2
2018-07-09T13:55:08.764Z,35.3
2018-07-09T13:56:18.791Z,35.45
2018-07-09T13:57:28.828Z,35.52
2018-07-09T13:58:38.858Z,35.64
2018-07-09T13:59:48.622Z,35.86
2018-07-09T14:00:58.500Z,35.9
2018-07-09T14:02:08.288Z,36.01
2018-07-09T14:03:18.063Z,35.55
2018-07-09T14:04:28.082Z,35.47
2018-07-09T14:05:38.114Z,35.55
2018-07-09T14:06:48.197Z,35.49
2018-07-09T14:07:57.964Z,35.47
2018-07-09T14:09:07.973Z,35.53
2018-07-09T14:10:18.091Z,35.4
2018-07-09T14:11:28.407Z,35.53
2018-07-09T14:12:38.445Z,35.67
2018-07-09T14:13:48.480Z,35.6
2018-07-09T14:14:58.506Z,35.58
2018-07-09T14:16:08.263Z,35.58
2018-07-09T14:17:18.278Z,35.64
2018-07-09T14:18:28.293Z,35.65
2018-07-09T14:19:38.324Z,35.74
2018-07-09T14:20:48.067Z,35.8
2018-07-09T14:21:57.572Z,35.86
2018-07-09T14:23:07.597Z,35.87
2018-07-09T14:24:17.618Z,35.95
2018-07-09T14:25:27.636Z,35.8
2018-07-09T14:26:37.395Z,35.95
2018-07-09T14:27:47.158Z,36.18
2018-07-09T14:28:57.184Z,36.3
2018-07-09T14:30:06.990Z,36.44
2018-07-09T14:31:17.010Z,36.7
2018-07-09T14:32:26.769Z,36.8
2018-07-09T14:33:36.785Z,36.9
2018-07-09T14:34:46.812Z,36.9
2018-07-09T14:35:56.842Z,36.93
2018-07-09T14:37:07.207Z,36.9
2018-07-09T14:38:16.963Z,36.86
2018-07-09T14:39:26.740Z,36.81
2018-07-09T14:40:36.757Z,36.65
2018-07-09T14:41:46.806Z,36.58
2018-07-09T14:42:56.834Z,36.4
2018-07-09T14:44:06.867Z,36.22
2018-07-09T14:45:16.882Z,35.95
2018-07-09T14:46:26.973Z,35.74
2018-07-09T14:47:36.990Z,35.45
2018-07-09T14:48:46.767Z,35.18
2018-07-09T14:49:56.803Z,34.78
2018-07-09T14:51:06.556Z,34.51
2018-07-09T14:52:16.340Z,34.39
2018-07-09T14:53:26.432Z,34.24
2018-07-09T14:54:36.441Z,33.83
2018-07-09T14:55:46.482Z,33.56
2018-07-09T14:56:56.263Z,33.37
2018-07-09T14:58:06.340Z,33.23
2018-07-09T14:59:16.413Z,33.05
2018-07-09T15:00:26.479Z,33.01
2018-07-09T15:01:36.503Z,33.29
2018-07-09T15:02:46.269Z,33.2
2018-07-09T15:03:56.291Z,33.37
2018-07-09T15:05:06.332Z,33.46
2018-07-09T15:06:16.377Z,33.58
2018-07-09T15:07:26.424Z,33.59
2018-07-09T15:08:36.177Z,33.71
2018-07-09T15:09:46.530Z,33.65
2018-07-09T15:10:56.545Z,33.74
2018-07-09T15:12:06.320Z,33.71
2018-07-09T15:13:16.088Z,33.73
2018-07-09T15:14:25.856Z,33.63
2018-07-09T15:15:35.868Z,33.69
2018-07-09T15:16:45.691Z,33.74
2018-07-09T15:17:55.713Z,33.74
2018-07-09T15:19:05.220Z,33.62
2018-07-09T15:20:15.236Z,33.68
2018-07-09T15:21:25.268Z,33.65
2018-07-09T15:22:35.374Z,33.61
2018-07-09T15:23:45.400Z,33.66
2018-07-09T15:24:55.422Z,33.58
2018-07-09T15:26:05.184Z,33.44
2018-07-09T15:27:15.214Z,33.46
2018-07-09T15:28:24.966Z,33.44
2018-07-09T15:29:34.725Z,33.36
2018-07-09T15:30:44.792Z,33.4
2018-07-09T15:31:54.820Z,33.4
2018-07-09T15:33:04.860Z,33.26
2018-07-09T15:34:14.930Z,33.12
2018-07-09T15:35:24.947Z,33.02
2018-07-09T15:36:34.728Z,32.98
2018-07-09T15:37:44.493Z,32.98
2018-07-09T15:38:54.520Z,32.98
2018-07-09T15:40:04.538Z,32.86
2018-07-09T15:41:14.323Z,32.86
2018-07-09T15:42:24.142Z,32.89
2018-07-09T15:43:34.310Z,32.93
2018-07-09T15:44:44.080Z,32.89